sensor_id;sensor_type;location;lat;lon;timestamp;P1;durP1;ratioP1;P2;durP2;ratioP2
2996;SDS011;1508;48.744;9.110;2022-11-20T00:00:56;30.25;;;9.82;;
2996;SDS011;1508;48.744;9.110;2022-11-20T00:03:42;30.42;;;16.95;;
2996;SDS011;1508;48.744;9.110;2022-11-20T00:06:30;30.42;;;12.48;;
2996;SDS011;1508;48.744;9.110;2022-11-20T00:09:19;30.93;;;11.43;;
2996;SDS011;1508;48.744;9.110;2022-11-20T00:12:05;31.25;;;14.52;;
2996;SDS011;1508;48.744;9.110;2022-11-20T00:14:51;39.88;;;35.00;;
2996;SDS011;1508;48.744;9.110;2022-11-20T00:17:36;37.53;;;23.90;;
2996;SDS011;1508;48.744;9.110;2022-11-20T00:20:22;29.85;;;14.95;;
2996;SDS011;1508;48.744;9.110;2022-11-20T00:23:08;31.87;;;15.27;;
2996;SDS011;1508;48.744;9.110;2022-11-20T00:25:54;35.10;;;28.13;;
2996;SDS011;1508;48.744;9.110;2022-11-20T00:28:40;32.00;;;22.05;;
2996;SDS011;1508;48.744;9.110;2022-11-20T00:31:27;31.37;;;19.27;;
2996;SDS011;1508;48.744;9.110;2022-11-20T00:34:14;30.35;;;13.27;;
2996;SDS011;1508;48.744;9.110;2022-11-20T00:36:59;30.05;;;9.48;;
2996;SDS011;1508;48.744;9.110;2022-11-20T00:39:45;28.40;;;9.70;;
2996;SDS011;1508;48.744;9.110;2022-11-20T00:42:31;28.75;;;9.68;;
2996;SDS011;1508;48.744;9.110;2022-11-20T00:45:17;28.48;;;9.45;;
2996;SDS011;1508;48.744;9.110;2022-11-20T00:48:03;28.15;;;9.32;;
2996;SDS011;1508;48.744;9.110;2022-11-20T00:50:48;29.50;;;6.82;;
2996;SDS011;1508;48.744;9.110;2022-11-20T00:53:34;29.03;;;8.17;;
2996;SDS011;1508;48.744;9.110;2022-11-20T00:56:20;26.60;;;6.93;;
2996;SDS011;1508;48.744;9.110;2022-11-20T00:59:08;26.50;;;6.88;;
2996;SDS011;1508;48.744;9.110;2022-11-20T01:01:54;28.75;;;6.65;;
2996;SDS011;1508;48.744;9.110;2022-11-20T01:04:40;26.30;;;6.20;;
2996;SDS011;1508;48.744;9.110;2022-11-20T01:07:26;32.42;;;22.25;;
2996;SDS011;1508;48.744;9.110;2022-11-20T01:10:12;26.98;;;7.97;;
2996;SDS011;1508;48.744;9.110;2022-11-20T01:12:57;26.98;;;7.75;;
2996;SDS011;1508;48.744;9.110;2022-11-20T01:15:43;31.30;;;13.70;;
2996;SDS011;1508;48.744;9.110;2022-11-20T01:18:29;29.20;;;10.10;;
2996;SDS011;1508;48.744;9.110;2022-11-20T01:21:16;28.77;;;10.20;;
2996;SDS011;1508;48.744;9.110;2022-11-20T01:24:12;30.93;;;19.80;;
2996;SDS011;1508;48.744;9.110;2022-11-20T01:26:59;28.17;;;9.40;;
2996;SDS011;1508;48.744;9.110;2022-11-20T01:29:45;26.92;;;11.40;;
2996;SDS011;1508;48.744;9.110;2022-11-20T01:32:31;27.20;;;11.90;;
2996;SDS011;1508;48.744;9.110;2022-11-20T01:35:16;28.55;;;11.23;;
2996;SDS011;1508;48.744;9.110;2022-11-20T01:38:02;28.80;;;13.45;;
2996;SDS011;1508;48.744;9.110;2022-11-20T01:40:54;27.43;;;12.90;;
2996;SDS011;1508;48.744;9.110;2022-11-20T01:43:41;29.30;;;16.10;;
2996;SDS011;1508;48.744;9.110;2022-11-20T01:46:26;30.23;;;15.10;;
2996;SDS011;1508;48.744;9.110;2022-11-20T01:52:20;28.55;;;12.27;;
2996;SDS011;1508;48.744;9.110;2022-11-20T01:55:13;26.10;;;10.27;;
2996;SDS011;1508;48.744;9.110;2022-11-20T01:58:04;28.00;;;12.85;;
2996;SDS011;1508;48.744;9.110;2022-11-20T02:00:51;28.60;;;7.30;;
2996;SDS011;1508;48.744;9.110;2022-11-20T02:03:36;28.00;;;8.73;;
2996;SDS011;1508;48.744;9.110;2022-11-20T02:06:23;28.73;;;7.82;;
2996;SDS011;1508;48.744;9.110;2022-11-20T02:09:14;26.98;;;7.68;;
2996;SDS011;1508;48.744;9.110;2022-11-20T02:12:00;27.98;;;7.43;;
2996;SDS011;1508;48.744;9.110;2022-11-20T02:14:46;27.30;;;8.23;;
2996;SDS011;1508;48.744;9.110;2022-11-20T02:17:32;28.35;;;7.28;;
2996;SDS011;1508;48.744;9.110;2022-11-20T02:20:21;28.40;;;8.57;;
2996;SDS011;1508;48.744;9.110;2022-11-20T02:23:24;28.13;;;8.02;;
2996;SDS011;1508;48.744;9.110;2022-11-20T02:26:16;28.17;;;8.20;;
2996;SDS011;1508;48.744;9.110;2022-11-20T02:29:04;26.92;;;8.82;;
2996;SDS011;1508;48.744;9.110;2022-11-20T02:31:50;28.23;;;9.88;;
2996;SDS011;1508;48.744;9.110;2022-11-20T02:34:39;27.98;;;7.90;;
2996;SDS011;1508;48.744;9.110;2022-11-20T02:37:28;27.23;;;6.60;;
2996;SDS011;1508;48.744;9.110;2022-11-20T02:40:17;25.60;;;8.18;;
2996;SDS011;1508;48.744;9.110;2022-11-20T02:43:03;25.83;;;10.80;;
2996;SDS011;1508;48.744;9.110;2022-11-20T02:45:49;27.92;;;10.95;;
2996;SDS011;1508;48.744;9.110;2022-11-20T02:48:35;27.45;;;9.93;;
2996;SDS011;1508;48.744;9.110;2022-11-20T02:51:21;27.10;;;10.07;;
2996;SDS011;1508;48.744;9.110;2022-11-20T02:54:07;25.98;;;8.27;;
2996;SDS011;1508;48.744;9.110;2022-11-20T02:56:53;26.85;;;7.55;;
2996;SDS011;1508;48.744;9.110;2022-11-20T02:59:39;25.53;;;6.13;;
2996;SDS011;1508;48.744;9.110;2022-11-20T03:02:25;29.08;;;8.70;;
2996;SDS011;1508;48.744;9.110;2022-11-20T03:05:11;25.80;;;7.00;;
2996;SDS011;1508;48.744;9.110;2022-11-20T03:07:56;28.10;;;8.17;;
2996;SDS011;1508;48.744;9.110;2022-11-20T03:10:42;27.80;;;7.47;;
2996;SDS011;1508;48.744;9.110;2022-11-20T03:13:28;28.95;;;11.18;;
2996;SDS011;1508;48.744;9.110;2022-11-20T03:16:16;29.43;;;9.97;;
2996;SDS011;1508;48.744;9.110;2022-11-20T03:19:03;31.17;;;13.10;;
2996;SDS011;1508;48.744;9.110;2022-11-20T03:21:49;28.53;;;10.80;;
2996;SDS011;1508;48.744;9.110;2022-11-20T03:24:35;33.33;;;20.75;;
2996;SDS011;1508;48.744;9.110;2022-11-20T03:27:21;28.48;;;13.15;;
2996;SDS011;1508;48.744;9.110;2022-11-20T03:30:07;29.73;;;12.13;;
2996;SDS011;1508;48.744;9.110;2022-11-20T03:32:53;28.88;;;10.45;;
2996;SDS011;1508;48.744;9.110;2022-11-20T03:35:39;44.10;;;39.90;;
2996;SDS011;1508;48.744;9.110;2022-11-20T03:38:25;30.02;;;16.13;;
2996;SDS011;1508;48.744;9.110;2022-11-20T03:41:14;27.27;;;7.30;;
2996;SDS011;1508;48.744;9.110;2022-11-20T03:44:05;40.05;;;34.65;;
2996;SDS011;1508;48.744;9.110;2022-11-20T03:46:52;32.17;;;18.85;;
2996;SDS011;1508;48.744;9.110;2022-11-20T03:49:38;27.05;;;6.65;;
2996;SDS011;1508;48.744;9.110;2022-11-20T03:52:24;34.23;;;20.40;;
2996;SDS011;1508;48.744;9.110;2022-11-20T03:55:12;32.30;;;16.25;;
2996;SDS011;1508;48.744;9.110;2022-11-20T03:57:58;33.17;;;23.70;;
2996;SDS011;1508;48.744;9.110;2022-11-20T04:00:44;29.70;;;15.83;;
2996;SDS011;1508;48.744;9.110;2022-11-20T04:03:30;29.42;;;16.02;;
2996;SDS011;1508;48.744;9.110;2022-11-20T04:06:19;32.28;;;20.23;;
2996;SDS011;1508;48.744;9.110;2022-11-20T04:09:07;30.50;;;14.25;;
2996;SDS011;1508;48.744;9.110;2022-11-20T04:11:52;30.00;;;15.40;;
2996;SDS011;1508;48.744;9.110;2022-11-20T04:14:38;30.27;;;18.40;;
2996;SDS011;1508;48.744;9.110;2022-11-20T04:17:24;31.50;;;16.67;;
2996;SDS011;1508;48.744;9.110;2022-11-20T04:20:13;29.90;;;15.43;;
2996;SDS011;1508;48.744;9.110;2022-11-20T04:22:59;29.20;;;15.93;;
2996;SDS011;1508;48.744;9.110;2022-11-20T04:25:44;28.20;;;15.10;;
2996;SDS011;1508;48.744;9.110;2022-11-20T04:28:30;29.98;;;15.18;;
2996;SDS011;1508;48.744;9.110;2022-11-20T04:31:17;29.47;;;16.50;;
2996;SDS011;1508;48.744;9.110;2022-11-20T04:34:06;29.40;;;13.90;;
2996;SDS011;1508;48.744;9.110;2022-11-20T04:36:52;33.25;;;19.08;;
2996;SDS011;1508;48.744;9.110;2022-11-20T04:39:38;31.92;;;16.55;;
2996;SDS011;1508;48.744;9.110;2022-11-20T04:42:24;33.30;;;16.42;;
2996;SDS011;1508;48.744;9.110;2022-11-20T04:45:10;31.67;;;15.70;;
2996;SDS011;1508;48.744;9.110;2022-11-20T04:47:55;30.20;;;16.92;;
2996;SDS011;1508;48.744;9.110;2022-11-20T04:50:41;31.90;;;18.20;;
2996;SDS011;1508;48.744;9.110;2022-11-20T04:53:27;31.27;;;17.48;;
2996;SDS011;1508;48.744;9.110;2022-11-20T04:56:13;31.75;;;19.48;;
2996;SDS011;1508;48.744;9.110;2022-11-20T04:59:02;31.33;;;16.10;;
2996;SDS011;1508;48.744;9.110;2022-11-20T05:01:48;32.47;;;17.73;;
2996;SDS011;1508;48.744;9.110;2022-11-20T05:04:34;31.90;;;17.13;;
2996;SDS011;1508;48.744;9.110;2022-11-20T05:07:20;30.43;;;13.97;;
2996;SDS011;1508;48.744;9.110;2022-11-20T05:10:06;32.38;;;19.23;;
2996;SDS011;1508;48.744;9.110;2022-11-20T05:12:52;33.05;;;17.23;;
2996;SDS011;1508;48.744;9.110;2022-11-20T05:15:38;32.15;;;18.95;;
2996;SDS011;1508;48.744;9.110;2022-11-20T05:18:24;30.08;;;13.90;;
2996;SDS011;1508;48.744;9.110;2022-11-20T05:21:10;29.60;;;12.63;;
2996;SDS011;1508;48.744;9.110;2022-11-20T05:23:56;27.90;;;12.13;;
2996;SDS011;1508;48.744;9.110;2022-11-20T05:26:42;28.10;;;12.30;;
2996;SDS011;1508;48.744;9.110;2022-11-20T05:29:28;32.53;;;23.77;;
2996;SDS011;1508;48.744;9.110;2022-11-20T05:32:14;28.55;;;12.55;;
2996;SDS011;1508;48.744;9.110;2022-11-20T05:34:59;30.63;;;11.90;;
2996;SDS011;1508;48.744;9.110;2022-11-20T05:37:45;26.33;;;10.80;;
2996;SDS011;1508;48.744;9.110;2022-11-20T05:40:31;27.27;;;11.93;;
2996;SDS011;1508;48.744;9.110;2022-11-20T05:43:20;27.70;;;8.88;;
2996;SDS011;1508;48.744;9.110;2022-11-20T05:46:06;27.05;;;9.20;;
2996;SDS011;1508;48.744;9.110;2022-11-20T05:48:52;28.20;;;10.15;;
2996;SDS011;1508;48.744;9.110;2022-11-20T05:51:40;77.73;;;72.23;;
2996;SDS011;1508;48.744;9.110;2022-11-20T05:54:26;28.85;;;11.18;;
2996;SDS011;1508;48.744;9.110;2022-11-20T05:57:12;33.60;;;26.13;;
2996;SDS011;1508;48.744;9.110;2022-11-20T05:59:57;29.43;;;14.20;;
2996;SDS011;1508;48.744;9.110;2022-11-20T06:02:43;30.92;;;18.98;;
2996;SDS011;1508;48.744;9.110;2022-11-20T06:05:29;29.45;;;18.85;;
2996;SDS011;1508;48.744;9.110;2022-11-20T06:08:15;30.70;;;16.03;;
2996;SDS011;1508;48.744;9.110;2022-11-20T06:11:05;29.98;;;14.95;;
2996;SDS011;1508;48.744;9.110;2022-11-20T06:13:54;37.78;;;33.30;;
2996;SDS011;1508;48.744;9.110;2022-11-20T06:16:40;35.30;;;29.67;;
2996;SDS011;1508;48.744;9.110;2022-11-20T06:19:26;29.73;;;16.98;;
2996;SDS011;1508;48.744;9.110;2022-11-20T06:22:12;31.27;;;22.52;;
2996;SDS011;1508;48.744;9.110;2022-11-20T06:24:58;32.13;;;15.32;;
2996;SDS011;1508;48.744;9.110;2022-11-20T06:27:44;32.42;;;24.13;;
2996;SDS011;1508;48.744;9.110;2022-11-20T06:30:29;26.95;;;16.40;;
2996;SDS011;1508;48.744;9.110;2022-11-20T06:33:15;27.98;;;12.07;;
2996;SDS011;1508;48.744;9.110;2022-11-20T06:36:01;28.60;;;17.77;;
2996;SDS011;1508;48.744;9.110;2022-11-20T06:38:48;30.60;;;17.48;;
2996;SDS011;1508;48.744;9.110;2022-11-20T06:41:34;40.22;;;35.92;;
2996;SDS011;1508;48.744;9.110;2022-11-20T06:44:20;29.17;;;17.87;;
2996;SDS011;1508;48.744;9.110;2022-11-20T06:47:05;39.67;;;32.40;;
2996;SDS011;1508;48.744;9.110;2022-11-20T06:49:51;45.75;;;41.28;;
2996;SDS011;1508;48.744;9.110;2022-11-20T06:52:40;35.20;;;29.87;;
2996;SDS011;1508;48.744;9.110;2022-11-20T06:55:26;30.35;;;18.45;;
2996;SDS011;1508;48.744;9.110;2022-11-20T06:58:12;30.02;;;17.13;;
2996;SDS011;1508;48.744;9.110;2022-11-20T07:00:59;32.38;;;21.45;;
2996;SDS011;1508;48.744;9.110;2022-11-20T07:03:48;32.25;;;24.55;;
2996;SDS011;1508;48.744;9.110;2022-11-20T07:06:34;27.80;;;13.48;;
2996;SDS011;1508;48.744;9.110;2022-11-20T07:09:20;32.90;;;26.57;;
2996;SDS011;1508;48.744;9.110;2022-11-20T07:12:06;30.42;;;14.43;;
2996;SDS011;1508;48.744;9.110;2022-11-20T07:14:51;29.55;;;15.38;;
2996;SDS011;1508;48.744;9.110;2022-11-20T07:17:37;28.60;;;15.63;;
2996;SDS011;1508;48.744;9.110;2022-11-20T07:20:23;30.17;;;19.42;;
2996;SDS011;1508;48.744;9.110;2022-11-20T07:23:09;30.35;;;19.73;;
2996;SDS011;1508;48.744;9.110;2022-11-20T07:25:55;50.53;;;46.03;;
2996;SDS011;1508;48.744;9.110;2022-11-20T07:28:43;30.40;;;17.73;;
2996;SDS011;1508;48.744;9.110;2022-11-20T07:31:29;27.33;;;9.98;;
2996;SDS011;1508;48.744;9.110;2022-11-20T07:34:15;28.58;;;12.27;;
2996;SDS011;1508;48.744;9.110;2022-11-20T07:37:01;33.67;;;27.38;;
2996;SDS011;1508;48.744;9.110;2022-11-20T07:39:47;29.63;;;15.18;;
2996;SDS011;1508;48.744;9.110;2022-11-20T07:42:33;36.38;;;29.15;;
2996;SDS011;1508;48.744;9.110;2022-11-20T07:45:19;29.40;;;11.18;;
2996;SDS011;1508;48.744;9.110;2022-11-20T07:48:05;33.23;;;26.00;;
2996;SDS011;1508;48.744;9.110;2022-11-20T07:50:55;25.73;;;6.45;;
2996;SDS011;1508;48.744;9.110;2022-11-20T07:53:41;38.55;;;32.95;;
2996;SDS011;1508;48.744;9.110;2022-11-20T07:56:26;51.53;;;46.75;;
2996;SDS011;1508;48.744;9.110;2022-11-20T07:59:12;31.63;;;24.30;;
2996;SDS011;1508;48.744;9.110;2022-11-20T08:01:58;34.65;;;30.27;;
2996;SDS011;1508;48.744;9.110;2022-11-20T08:04:44;29.58;;;19.45;;
2996;SDS011;1508;48.744;9.110;2022-11-20T08:07:34;32.53;;;24.02;;
2996;SDS011;1508;48.744;9.110;2022-11-20T08:10:24;30.40;;;15.35;;
2996;SDS011;1508;48.744;9.110;2022-11-20T08:13:10;104.03;;;96.88;;
2996;SDS011;1508;48.744;9.110;2022-11-20T08:15:56;34.63;;;28.58;;
2996;SDS011;1508;48.744;9.110;2022-11-20T08:18:42;28.53;;;11.03;;
2996;SDS011;1508;48.744;9.110;2022-11-20T08:21:27;407.80;;;380.70;;
2996;SDS011;1508;48.744;9.110;2022-11-20T08:24:13;63.03;;;58.03;;
2996;SDS011;1508;48.744;9.110;2022-11-20T08:26:59;29.00;;;15.43;;
2996;SDS011;1508;48.744;9.110;2022-11-20T08:29:45;30.00;;;12.80;;
2996;SDS011;1508;48.744;9.110;2022-11-20T08:32:31;71.40;;;66.35;;
2996;SDS011;1508;48.744;9.110;2022-11-20T08:35:17;67.22;;;62.42;;
2996;SDS011;1508;48.744;9.110;2022-11-20T08:38:03;79.40;;;73.68;;
2996;SDS011;1508;48.744;9.110;2022-11-20T08:40:50;30.88;;;20.92;;
2996;SDS011;1508;48.744;9.110;2022-11-20T08:43:35;369.77;;;343.45;;
2996;SDS011;1508;48.744;9.110;2022-11-20T08:46:22;87.45;;;81.28;;
2996;SDS011;1508;48.744;9.110;2022-11-20T08:49:09;73.13;;;67.57;;
2996;SDS011;1508;48.744;9.110;2022-11-20T08:51:56;42.10;;;37.13;;
2996;SDS011;1508;48.744;9.110;2022-11-20T08:54:42;69.93;;;64.72;;
2996;SDS011;1508;48.744;9.110;2022-11-20T08:57:30;102.15;;;95.95;;
2996;SDS011;1508;48.744;9.110;2022-11-20T09:00:17;119.88;;;112.18;;
2996;SDS011;1508;48.744;9.110;2022-11-20T09:03:03;96.15;;;90.05;;
2996;SDS011;1508;48.744;9.110;2022-11-20T09:05:49;64.60;;;59.45;;
2996;SDS011;1508;48.744;9.110;2022-11-20T09:08:35;187.77;;;175.68;;
2996;SDS011;1508;48.744;9.110;2022-11-20T09:11:21;63.40;;;57.65;;
2996;SDS011;1508;48.744;9.110;2022-11-20T09:14:10;30.50;;;16.75;;
2996;SDS011;1508;48.744;9.110;2022-11-20T09:16:56;30.35;;;16.63;;
2996;SDS011;1508;48.744;9.110;2022-11-20T09:19:42;355.88;;;333.02;;
2996;SDS011;1508;48.744;9.110;2022-11-20T09:22:27;32.70;;;22.38;;
2996;SDS011;1508;48.744;9.110;2022-11-20T09:25:13;46.13;;;41.83;;
2996;SDS011;1508;48.744;9.110;2022-11-20T09:27:59;54.05;;;48.75;;
2996;SDS011;1508;48.744;9.110;2022-11-20T09:30:48;34.47;;;29.67;;
2996;SDS011;1508;48.744;9.110;2022-11-20T09:33:34;47.40;;;43.22;;
2996;SDS011;1508;48.744;9.110;2022-11-20T09:36:20;105.15;;;97.93;;
2996;SDS011;1508;48.744;9.110;2022-11-20T09:39:06;97.40;;;90.93;;
2996;SDS011;1508;48.744;9.110;2022-11-20T09:45:16;69.82;;;64.60;;
2996;SDS011;1508;48.744;9.110;2022-11-20T09:54:22;31.13;;;22.45;;
2996;SDS011;1508;48.744;9.110;2022-11-20T09:57:21;63.22;;;57.90;;
2996;SDS011;1508;48.744;9.110;2022-11-20T10:00:12;54.22;;;49.50;;
2996;SDS011;1508;48.744;9.110;2022-11-20T10:03:00;145.98;;;134.90;;
2996;SDS011;1508;48.744;9.110;2022-11-20T10:05:54;63.85;;;58.83;;
2996;SDS011;1508;48.744;9.110;2022-11-20T10:08:42;31.95;;;23.20;;
2996;SDS011;1508;48.744;9.110;2022-11-20T10:18:15;30.15;;;19.38;;
2996;SDS011;1508;48.744;9.110;2022-11-20T10:21:08;172.55;;;159.60;;
2996;SDS011;1508;48.744;9.110;2022-11-20T10:24:21;58.50;;;53.75;;
2996;SDS011;1508;48.744;9.110;2022-11-20T10:30:36;471.00;;;439.07;;
2996;SDS011;1508;48.744;9.110;2022-11-20T10:33:25;24.17;;;12.27;;
2996;SDS011;1508;48.744;9.110;2022-11-20T10:36:17;25.60;;;15.13;;
2996;SDS011;1508;48.744;9.110;2022-11-20T10:42:38;188.00;;;175.77;;
2996;SDS011;1508;48.744;9.110;2022-11-20T10:45:46;73.30;;;68.18;;
2996;SDS011;1508;48.744;9.110;2022-11-20T10:48:48;24.77;;;11.30;;
2996;SDS011;1508;48.744;9.110;2022-11-20T10:51:40;36.30;;;32.83;;
2996;SDS011;1508;48.744;9.110;2022-11-20T10:57:46;26.98;;;13.95;;
2996;SDS011;1508;48.744;9.110;2022-11-20T11:00:49;120.78;;;112.30;;
2996;SDS011;1508;48.744;9.110;2022-11-20T11:03:34;43.05;;;39.22;;
2996;SDS011;1508;48.744;9.110;2022-11-20T11:06:29;54.80;;;50.30;;
2996;SDS011;1508;48.744;9.110;2022-11-20T11:09:24;26.23;;;16.75;;
2996;SDS011;1508;48.744;9.110;2022-11-20T11:12:19;29.98;;;23.45;;
2996;SDS011;1508;48.744;9.110;2022-11-20T11:15:14;70.10;;;64.70;;
2996;SDS011;1508;48.744;9.110;2022-11-20T11:18:22;26.20;;;11.18;;
2996;SDS011;1508;48.744;9.110;2022-11-20T11:21:24;673.72;;;626.75;;
2996;SDS011;1508;48.744;9.110;2022-11-20T11:24:29;60.30;;;55.25;;
2996;SDS011;1508;48.744;9.110;2022-11-20T11:27:15;25.60;;;8.55;;
2996;SDS011;1508;48.744;9.110;2022-11-20T11:30:03;31.75;;;23.92;;
2996;SDS011;1508;48.744;9.110;2022-11-20T11:33:02;28.40;;;17.77;;
2996;SDS011;1508;48.744;9.110;2022-11-20T11:36:00;53.47;;;49.40;;
2996;SDS011;1508;48.744;9.110;2022-11-20T11:39:03;578.20;;;535.22;;
2996;SDS011;1508;48.744;9.110;2022-11-20T11:41:51;357.88;;;333.13;;
2996;SDS011;1508;48.744;9.110;2022-11-20T11:44:37;170.77;;;159.05;;
2996;SDS011;1508;48.744;9.110;2022-11-20T11:47:35;155.30;;;145.50;;
2996;SDS011;1508;48.744;9.110;2022-11-20T11:50:29;625.50;;;580.67;;
2996;SDS011;1508;48.744;9.110;2022-11-20T11:53:16;559.15;;;521.63;;
2996;SDS011;1508;48.744;9.110;2022-11-20T11:56:08;297.65;;;279.42;;
2996;SDS011;1508;48.744;9.110;2022-11-20T11:58:56;34.45;;;30.30;;
2996;SDS011;1508;48.744;9.110;2022-11-20T12:01:56;272.90;;;254.77;;
2996;SDS011;1508;48.744;9.110;2022-11-20T12:04:50;313.65;;;293.05;;
2996;SDS011;1508;48.744;9.110;2022-11-20T12:07:43;190.05;;;175.65;;
2996;SDS011;1508;48.744;9.110;2022-11-20T12:10:58;757.10;;;681.63;;
2996;SDS011;1508;48.744;9.110;2022-11-20T12:14:09;101.00;;;95.15;;
2996;SDS011;1508;48.744;9.110;2022-11-20T12:17:08;477.83;;;445.83;;
2996;SDS011;1508;48.744;9.110;2022-11-20T12:19:57;277.58;;;256.73;;
2996;SDS011;1508;48.744;9.110;2022-11-20T12:22:46;476.52;;;439.38;;
2996;SDS011;1508;48.744;9.110;2022-11-20T12:25:35;388.90;;;357.80;;
2996;SDS011;1508;48.744;9.110;2022-11-20T12:28:25;434.50;;;394.40;;
2996;SDS011;1508;48.744;9.110;2022-11-20T12:37:46;106.28;;;99.82;;
2996;SDS011;1508;48.744;9.110;2022-11-20T12:40:44;497.77;;;451.85;;
2996;SDS011;1508;48.744;9.110;2022-11-20T12:44:06;104.33;;;96.57;;
2996;SDS011;1508;48.744;9.110;2022-11-20T12:46:50;128.25;;;120.53;;
2996;SDS011;1508;48.744;9.110;2022-11-20T12:50:08;312.13;;;297.70;;
2996;SDS011;1508;48.744;9.110;2022-11-20T12:53:08;337.20;;;313.85;;
2996;SDS011;1508;48.744;9.110;2022-11-20T12:59:33;832.60;;;749.53;;
2996;SDS011;1508;48.744;9.110;2022-11-20T13:02:49;790.83;;;718.57;;
2996;SDS011;1508;48.744;9.110;2022-11-20T13:06:05;313.33;;;298.25;;
2996;SDS011;1508;48.744;9.110;2022-11-20T13:09:02;421.58;;;393.98;;
2996;SDS011;1508;48.744;9.110;2022-11-20T13:18:06;652.88;;;600.95;;
2996;SDS011;1508;48.744;9.110;2022-11-20T13:20:55;476.42;;;444.67;;
2996;SDS011;1508;48.744;9.110;2022-11-20T13:23:41;579.05;;;531.97;;
2996;SDS011;1508;48.744;9.110;2022-11-20T13:26:27;923.20;;;828.23;;
2996;SDS011;1508;48.744;9.110;2022-11-20T13:29:17;345.13;;;328.80;;
2996;SDS011;1508;48.744;9.110;2022-11-20T13:32:05;289.70;;;275.27;;
2996;SDS011;1508;48.744;9.110;2022-11-20T13:34:59;900.60;;;799.47;;
2996;SDS011;1508;48.744;9.110;2022-11-20T13:37:49;541.85;;;505.92;;
2996;SDS011;1508;48.744;9.110;2022-11-20T13:40:59;546.15;;;510.13;;
2996;SDS011;1508;48.744;9.110;2022-11-20T13:43:46;436.33;;;412.73;;
2996;SDS011;1508;48.744;9.110;2022-11-20T13:46:37;711.45;;;649.33;;
2996;SDS011;1508;48.744;9.110;2022-11-20T13:49:26;612.95;;;551.25;;
2996;SDS011;1508;48.744;9.110;2022-11-20T13:55:37;828.97;;;755.00;;
2996;SDS011;1508;48.744;9.110;2022-11-20T13:58:40;415.70;;;389.42;;
2996;SDS011;1508;48.744;9.110;2022-11-20T14:01:30;101.80;;;94.88;;
2996;SDS011;1508;48.744;9.110;2022-11-20T14:04:19;315.20;;;296.17;;
2996;SDS011;1508;48.744;9.110;2022-11-20T14:07:11;102.88;;;96.65;;
2996;SDS011;1508;48.744;9.110;2022-11-20T14:09:57;299.75;;;280.15;;
2996;SDS011;1508;48.744;9.110;2022-11-20T14:12:43;40.95;;;36.97;;
2996;SDS011;1508;48.744;9.110;2022-11-20T14:15:30;123.20;;;115.13;;
2996;SDS011;1508;48.744;9.110;2022-11-20T14:18:20;46.22;;;41.75;;
2996;SDS011;1508;48.744;9.110;2022-11-20T14:21:08;118.50;;;110.97;;
2996;SDS011;1508;48.744;9.110;2022-11-20T14:26:50;99.35;;;92.65;;
2996;SDS011;1508;48.744;9.110;2022-11-20T14:29:37;116.10;;;108.57;;
2996;SDS011;1508;48.744;9.110;2022-11-20T14:32:25;330.93;;;310.80;;
2996;SDS011;1508;48.744;9.110;2022-11-20T14:35:15;143.63;;;134.73;;
2996;SDS011;1508;48.744;9.110;2022-11-20T14:38:09;312.08;;;291.10;;
2996;SDS011;1508;48.744;9.110;2022-11-20T14:44:25;115.97;;;108.47;;
2996;SDS011;1508;48.744;9.110;2022-11-20T14:47:18;101.93;;;94.75;;
2996;SDS011;1508;48.744;9.110;2022-11-20T14:50:14;250.05;;;233.68;;
2996;SDS011;1508;48.744;9.110;2022-11-20T14:53:04;89.33;;;82.57;;
2996;SDS011;1508;48.744;9.110;2022-11-20T14:55:57;44.97;;;37.95;;
2996;SDS011;1508;48.744;9.110;2022-11-20T14:58:45;58.10;;;52.90;;
2996;SDS011;1508;48.744;9.110;2022-11-20T15:01:43;120.47;;;112.38;;
2996;SDS011;1508;48.744;9.110;2022-11-20T15:04:56;36.90;;;26.65;;
2996;SDS011;1508;48.744;9.110;2022-11-20T15:07:44;35.92;;;26.05;;
2996;SDS011;1508;48.744;9.110;2022-11-20T15:10:31;37.03;;;33.03;;
2996;SDS011;1508;48.744;9.110;2022-11-20T15:13:21;27.30;;;6.45;;
2996;SDS011;1508;48.744;9.110;2022-11-20T15:16:17;28.42;;;10.00;;
2996;SDS011;1508;48.744;9.110;2022-11-20T15:19:04;27.70;;;6.97;;
2996;SDS011;1508;48.744;9.110;2022-11-20T15:22:07;27.90;;;7.38;;
2996;SDS011;1508;48.744;9.110;2022-11-20T15:24:57;28.38;;;8.50;;
2996;SDS011;1508;48.744;9.110;2022-11-20T15:27:43;42.00;;;37.88;;
2996;SDS011;1508;48.744;9.110;2022-11-20T15:30:29;31.95;;;19.98;;
2996;SDS011;1508;48.744;9.110;2022-11-20T15:33:16;29.67;;;11.35;;
2996;SDS011;1508;48.744;9.110;2022-11-20T15:36:02;28.80;;;8.80;;
2996;SDS011;1508;48.744;9.110;2022-11-20T15:38:48;31.02;;;9.27;;
2996;SDS011;1508;48.744;9.110;2022-11-20T15:41:34;30.95;;;15.73;;
2996;SDS011;1508;48.744;9.110;2022-11-20T15:44:21;31.27;;;13.20;;
2996;SDS011;1508;48.744;9.110;2022-11-20T15:47:07;24.25;;;11.70;;
2996;SDS011;1508;48.744;9.110;2022-11-20T15:49:53;25.10;;;10.23;;
2996;SDS011;1508;48.744;9.110;2022-11-20T15:52:38;25.60;;;10.18;;
2996;SDS011;1508;48.744;9.110;2022-11-20T15:55:24;25.05;;;9.07;;
2996;SDS011;1508;48.744;9.110;2022-11-20T15:58:10;24.15;;;7.13;;
2996;SDS011;1508;48.744;9.110;2022-11-20T16:00:56;23.60;;;5.97;;
2996;SDS011;1508;48.744;9.110;2022-11-20T16:03:42;26.48;;;8.27;;
2996;SDS011;1508;48.744;9.110;2022-11-20T16:06:31;24.10;;;5.75;;
2996;SDS011;1508;48.744;9.110;2022-11-20T16:09:17;25.10;;;7.60;;
2996;SDS011;1508;48.744;9.110;2022-11-20T16:12:03;24.90;;;6.70;;
2996;SDS011;1508;48.744;9.110;2022-11-20T16:14:49;24.90;;;7.20;;
2996;SDS011;1508;48.744;9.110;2022-11-20T16:17:34;27.73;;;14.45;;
2996;SDS011;1508;48.744;9.110;2022-11-20T16:20:20;26.10;;;7.78;;
2996;SDS011;1508;48.744;9.110;2022-11-20T16:23:06;24.80;;;8.10;;
2996;SDS011;1508;48.744;9.110;2022-11-20T16:25:52;25.58;;;6.63;;
2996;SDS011;1508;48.744;9.110;2022-11-20T16:28:38;29.83;;;15.60;;
2996;SDS011;1508;48.744;9.110;2022-11-20T16:31:24;29.52;;;22.58;;
2996;SDS011;1508;48.744;9.110;2022-11-20T16:34:10;25.35;;;6.30;;
2996;SDS011;1508;48.744;9.110;2022-11-20T16:36:56;27.90;;;11.95;;
2996;SDS011;1508;48.744;9.110;2022-11-20T16:39:42;28.75;;;16.45;;
2996;SDS011;1508;48.744;9.110;2022-11-20T16:42:29;27.30;;;8.37;;
2996;SDS011;1508;48.744;9.110;2022-11-20T16:45:19;79.32;;;72.95;;
2996;SDS011;1508;48.744;9.110;2022-11-20T16:48:05;30.98;;;19.83;;
2996;SDS011;1508;48.744;9.110;2022-11-20T16:50:51;27.42;;;15.27;;
2996;SDS011;1508;48.744;9.110;2022-11-20T16:53:38;26.63;;;9.88;;
2996;SDS011;1508;48.744;9.110;2022-11-20T16:56:24;29.25;;;16.75;;
2996;SDS011;1508;48.744;9.110;2022-11-20T16:59:11;28.75;;;14.43;;
2996;SDS011;1508;48.744;9.110;2022-11-20T17:01:57;32.83;;;15.80;;
2996;SDS011;1508;48.744;9.110;2022-11-20T17:04:43;41.85;;;37.85;;
2996;SDS011;1508;48.744;9.110;2022-11-20T17:07:29;32.67;;;22.08;;
2996;SDS011;1508;48.744;9.110;2022-11-20T17:10:15;31.23;;;12.10;;
2996;SDS011;1508;48.744;9.110;2022-11-20T17:13:01;31.60;;;13.13;;
2996;SDS011;1508;48.744;9.110;2022-11-20T17:15:47;29.45;;;12.00;;
2996;SDS011;1508;48.744;9.110;2022-11-20T17:18:32;35.03;;;21.80;;
2996;SDS011;1508;48.744;9.110;2022-11-20T17:21:18;41.15;;;37.28;;
2996;SDS011;1508;48.744;9.110;2022-11-20T17:24:05;101.75;;;94.07;;
2996;SDS011;1508;48.744;9.110;2022-11-20T17:26:53;32.40;;;18.93;;
2996;SDS011;1508;48.744;9.110;2022-11-20T17:29:39;28.92;;;19.25;;
2996;SDS011;1508;48.744;9.110;2022-11-20T17:32:25;52.35;;;47.63;;
2996;SDS011;1508;48.744;9.110;2022-11-20T17:35:10;32.20;;;22.40;;
2996;SDS011;1508;48.744;9.110;2022-11-20T17:37:56;40.70;;;31.40;;
2996;SDS011;1508;48.744;9.110;2022-11-20T17:40:42;31.85;;;15.25;;
2996;SDS011;1508;48.744;9.110;2022-11-20T17:43:28;69.83;;;64.17;;
2996;SDS011;1508;48.744;9.110;2022-11-20T17:46:15;38.35;;;23.88;;
2996;SDS011;1508;48.744;9.110;2022-11-20T17:49:03;31.60;;;10.80;;